Time;durP1;ratioP1;P1;durP2;ratioP2;P2;SDS_P1;SDS_P2;PMS_P1;PMS_P2;Temp;Humidity;BMP_temperature;BMP_pressure;BME280_temperature;BME280_humidity;BME280_pressure;Samples;Min_cycle;Max_cycle;Signal;HPM_P1;HPM_P2
2023/03/26 00:01:32;;;;;;;;;8.50;7.75;;;;;23.23;40.95;100468.19;5076483;27;46184;-86
2023/03/26 00:03:58;;;;;;;;;11.50;9.75;;;;;23.19;40.89;100448.34;5076336;27;45349;-86
2023/03/26 00:06:35;;;;;;;;;9.25;9.00;;;;;23.23;40.98;100441.66;5076705;28;45250;-87
2023/03/26 00:09:00;;;;;;;;;8.25;8.25;;;;;23.23;40.97;100428.38;5076402;28;45345;-87
2023/03/26 00:11:28;;;;;;;;;7.50;7.50;;;;;23.24;40.94;100426.53;5067793;28;46470;-85
2023/03/26 00:13:57;;;;;;;;;13.75;9.75;;;;;23.24;40.79;100424.69;5061849;27;45390;-86
2023/03/26 00:16:24;;;;;;;;;8.50;7.50;;;;;23.11;40.62;100395.47;5055924;28;45274;-85
2023/03/26 00:18:50;;;;;;;;;12.75;8.00;;;;;23.24;41.00;100413.25;5055913;28;45364;-85
2023/03/26 00:21:19;;;;;;;;;8.50;7.25;;;;;23.23;40.73;100404.50;5055818;28;45937;-85
2023/03/26 00:23:47;;;;;;;;;10.50;9.00;;;;;23.20;40.76;100385.50;5073436;27;45385;-86
2023/03/26 00:26:14;;;;;;;;;5.50;5.50;;;;;23.24;40.64;100389.38;5076213;27;45370;-86
2023/03/26 00:28:41;;;;;;;;;9.00;8.00;;;;;23.19;40.97;100360.78;5076100;27;45367;-86
2023/03/26 00:31:10;;;;;;;;;8.25;7.25;;;;;23.15;41.01;100351.59;5076118;27;46087;-86
2023/03/26 00:33:37;;;;;;;;;8.00;6.00;;;;;23.22;40.33;100347.13;5075942;28;45398;-86
2023/03/26 00:36:05;;;;;;;;;10.00;7.25;;;;;23.13;40.68;100313.84;5075481;28;45229;-86
2023/03/26 00:38:32;;;;;;;;;10.00;8.50;;;;;23.22;40.67;100311.78;5075843;28;45248;-86
2023/03/26 00:41:04;;;;;;;;;8.00;8.00;;;;;23.06;40.54;100274.00;5075645;28;46314;-85
2023/03/26 00:43:31;;;;;;;;;9.00;7.50;;;;;23.21;40.80;100281.81;5075886;27;45387;-86
2023/03/26 00:45:58;;;;;;;;;10.25;9.50;;;;;23.06;40.97;100250.94;5075718;28;45372;-86
2023/03/26 00:48:23;;;;;;;;;7.00;6.75;;;;;23.05;40.81;100236.06;5075954;27;45327;-86
2023/03/26 00:50:49;;;;;;;;;8.75;7.50;;;;;23.21;40.50;100257.09;5075467;28;46134;-86
2023/03/26 00:53:15;;;;;;;;;6.75;6.75;;;;;23.21;40.89;100259.75;5075788;27;45381;-86
2023/03/26 00:55:43;;;;;;;;;7.50;7.25;;;;;23.18;40.89;100226.47;5074838;28;45377;-86
2023/03/26 00:58:10;;;;;;;;;10.75;8.00;;;;;23.05;41.03;100209.53;5076240;28;45437;-86
2023/03/26 01:00:47;;;;;;;;;8.00;6.75;;;;;23.21;41.06;100222.59;5079287;28;46184;-86
2023/03/26 01:03:14;;;;;;;;;9.00;7.50;;;;;22.96;40.68;100181.53;5079251;27;45358;-86
2023/03/26 01:05:51;;;;;;;;;5.75;5.75;;;;;23.20;40.56;100200.53;5079098;28;45394;-87
2023/03/26 01:08:25;;;;;;;;;7.50;6.50;;;;;23.16;40.99;100183.41;5079462;27;45518;-87
2023/03/26 01:11:01;;;;;;;;;7.25;6.00;;;;;23.19;41.02;100169.72;5079171;28;46602;-86
2023/03/26 01:13:31;;;;;;;;;9.25;8.25;;;;;23.19;40.67;100164.41;5079183;28;45552;-86
2023/03/26 01:15:57;;;;;;;;;10.00;7.50;;;;;23.09;40.54;100145.41;5079228;28;45243;-87
2023/03/26 01:18:26;;;;;;;;;7.75;6.75;;;;;23.18;40.78;100141.56;5078998;28;45455;-86
2023/03/26 01:21:03;;;;;;;;;7.50;7.00;;;;;23.15;40.53;100134.81;5078754;27;46237;-86
2023/03/26 01:23:40;;;;;;;;;10.25;8.50;;;;;23.18;40.51;100126.47;5078780;27;45432;-86
2023/03/26 01:26:18;;;;;;;;;9.00;7.50;;;;;23.19;41.05;100121.94;5079047;28;45324;-86
2023/03/26 01:28:45;;;;;;;;;7.00;5.25;;;;;23.18;40.55;100112.38;5094602;27;45315;-87
2023/03/26 01:31:35;;;;;;;;;8.50;5.00;;;;;23.20;40.34;100096.22;5078698;27;46477;-86
2023/03/26 01:34:29;;;;;;;;;8.75;7.00;;;;;23.18;40.46;100085.84;5078513;27;45532;-86
2023/03/26 01:37:29;;;;;;;;;7.33;5.00;;;;;23.17;40.71;100082.34;5078663;28;45403;-86
2023/03/26 01:40:04;;;;;;;;;5.50;5.00;;;;;23.18;40.96;100072.56;5078273;28;45673;-87
2023/03/26 01:42:46;;;;;;;;;7.67;6.33;;;;;23.02;40.68;100047.28;5078439;28;47278;-87
2023/03/26 01:45:17;;;;;;;;;7.00;6.50;;;;;23.17;40.26;100044.38;5079043;28;45628;-87
2023/03/26 01:47:45;;;;;;;;;7.00;6.00;;;;;23.16;40.82;100040.91;5078860;28;45319;-86
2023/03/26 01:50:11;;;;;;;;;8.25;5.50;;;;;23.17;40.24;100028.47;5078290;28;45451;-87
2023/03/26 01:52:37;;;;;;;;;6.50;4.75;;;;;23.07;40.64;100003.19;5078134;28;45990;-86
2023/03/26 01:55:03;;;;;;;;;14.00;6.75;;;;;23.12;40.78;100007.88;5077212;28;45417;-86
2023/03/26 01:57:40;;;;;;;;;10.00;7.00;;;;;23.09;40.81;100015.41;5078661;28;45387;-86
2023/03/26 02:00:17;;;;;;;;;8.00;6.00;;;;;23.03;40.47;99954.19;5078396;28;45437;-87
2023/03/26 02:02:42;;;;;;;;;7.75;6.50;;;;;23.16;40.88;99979.09;5078321;28;46470;-88
2023/03/26 02:05:14;;;;;;;;;7.00;5.50;;;;;23.16;40.17;99966.63;5078044;28;45478;-86
2023/03/26 02:08:04;;;;;;;;;10.00;5.00;;;;;23.15;40.92;99943.78;5094219;27;45313;-86
2023/03/26 02:10:35;;;;;;;;;10.00;5.25;;;;;23.11;40.93;99916.00;5077966;28;45355;-86
2023/03/26 02:13:02;;;;;;;;;7.50;6.75;;;;;22.99;40.69;99891.16;5077990;28;47009;-86
2023/03/26 02:15:27;;;;;;;;;4.00;4.00;;;;;23.03;40.86;99889.75;5078356;28;45506;-86
2023/03/26 02:17:55;;;;;;;;;7.75;6.00;;;;;22.98;40.91;99858.53;5077789;28;45273;-87
2023/03/26 02:20:20;;;;;;;;;8.75;7.00;;;;;23.04;40.66;99870.13;5078279;28;45387;-86
2023/03/26 02:22:47;;;;;;;;;3.67;3.00;;;;;23.12;40.24;99869.06;5077699;27;46226;-86
2023/03/26 02:25:16;;;;;;;;;6.00;5.00;;;;;23.12;40.73;99869.06;5078223;28;45456;-86
2023/03/26 02:27:42;;;;;;;;;6.00;5.00;;;;;23.15;40.17;99853.56;5078293;27;45313;-85
2023/03/26 02:30:10;;;;;;;;;3.33;3.33;;;;;22.94;40.37;99804.28;5077955;28;45372;-85
2023/03/26 02:32:37;;;;;;;;;6.67;4.00;;;;;23.15;40.68;99824.38;5077324;27;47171;-86
2023/03/26 02:35:04;;;;;;;;;5.75;4.25;;;;;22.83;40.32;99765.97;5077895;28;45386;-86
2023/03/26 02:37:33;;;;;;;;;6.67;4.00;;;;;22.94;40.16;99770.63;5077727;28;45404;-86
2023/03/26 02:39:59;;;;;;;;;8.00;5.67;;;;;23.14;40.05;99774.97;5077873;27;45402;-85
2023/03/26 02:42:25;;;;;;;;;6.00;4.00;;;;;23.06;40.02;99764.63;5077601;28;47481;-85
2023/03/26 02:44:50;;;;;;;;;3.75;3.75;;;;;23.11;40.42;99762.13;5077832;28;45330;-87
2023/03/26 02:47:16;;;;;;;;;6.00;5.00;;;;;22.90;40.40;99726.97;5077824;28;45335;-87
2023/03/26 02:49:41;;;;;;;;;4.00;4.00;;;;;23.15;40.53;99746.59;5077964;28;45420;-86
2023/03/26 02:52:06;;;;;;;;;6.00;5.33;;;;;23.05;40.22;99726.69;5077514;28;45797;-86
2023/03/26 02:54:33;;;;;;;;;8.00;4.00;;;;;23.00;40.15;99718.56;5077666;28;45403;-86
2023/03/26 02:56:59;;;;;;;;;3.67;3.00;;;;;23.02;40.46;99700.56;5077780;28;45425;-86
2023/03/26 02:59:24;;;;;;;;;5.00;3.67;;;;;22.81;40.49;99657.47;5077505;28;45543;-86
2023/03/26 03:01:50;;;;;;;;;3.75;3.75;;;;;23.00;40.00;99692.03;5077138;28;46532;-86
2023/03/26 03:04:16;;;;;;;;;3.00;3.00;;;;;23.02;40.22;99689.16;5077354;28;45378;-86
2023/03/26 03:06:43;;;;;;;;;4.00;3.00;;;;;23.14;40.35;99706.00;5077652;27;45316;-86
2023/03/26 03:09:10;;;;;;;;;4.00;4.00;;;;;23.14;40.56;99708.66;5077415;28;45212;-86
2023/03/26 03:11:39;;;;;;;;;4.00;4.00;;;;;23.14;40.58;99708.66;5077092;28;46189;-86
2023/03/26 03:14:05;;;;;;;;;3.00;3.00;;;;;23.01;40.62;99683.03;5077141;27;45320;-87
2023/03/26 03:16:31;;;;;;;;;2.00;2.00;;;;;23.01;40.31;99680.38;5077070;28;45372;-86
2023/03/26 03:18:56;;;;;;;;;4.67;3.00;;;;;23.12;40.23;99702.75;5076151;28;45418;-87
2023/03/26 03:21:24;;;;;;;;;6.33;4.00;;;;;23.14;40.45;99710.47;5076073;28;46331;-87
2023/03/26 03:23:50;;;;;;;;;4.00;3.00;;;;;23.14;39.95;99691.91;5077300;27;45298;-86
2023/03/26 03:26:20;;;;;;;;;5.00;4.67;;;;;23.14;40.08;99678.66;5077149;27;45436;-87
2023/03/26 03:28:49;;;;;;;;;4.00;2.33;;;;;23.13;40.58;99672.53;5077073;28;45386;-86
2023/03/26 03:31:16;;;;;;;;;6.00;2.67;;;;;23.14;40.20;99699.88;5076398;27;46386;-86
2023/03/26 03:33:42;;;;;;;;;5.67;4.00;;;;;22.83;40.05;99667.84;5076960;28;45270;-86
2023/03/26 03:36:12;;;;;;;;;3.67;3.00;;;;;23.00;40.05;99683.25;5076795;28;45525;-86
2023/03/26 03:38:39;;;;;;;;;2.00;2.00;;;;;23.13;39.95;99724.78;5076658;28;45501;-86
2023/03/26 03:41:05;;;;;;;;;3.00;3.00;;;;;23.01;39.82;99732.59;5076654;28;47350;-86
2023/03/26 03:43:34;;;;;;;;;4.25;3.50;;;;;22.99;40.31;99748.75;5076862;28;45236;-87
2023/03/26 03:45:59;;;;;;;;;4.00;3.00;;;;;23.00;40.11;99774.25;5076545;27;45398;-87
2023/03/26 03:48:25;;;;;;;;;5.00;3.00;;;;;23.07;39.89;99782.16;5077116;28;45349;-87
2023/03/26 03:50:52;;;;;;;;;2.33;2.33;;;;;22.95;40.38;99764.25;5076627;28;46856;-86
2023/03/26 03:53:18;;;;;;;;;1.33;1.33;;;;;22.96;40.15;99778.34;5076699;28;45312;-87
2023/03/26 03:55:51;;;;;;;;;1.67;1.67;;;;;23.12;39.93;99816.00;5076762;28;45324;-86
2023/03/26 03:58:20;;;;;;;;;2.67;2.67;;;;;22.95;40.18;99790.00;5076628;27;45499;-87
2023/03/26 04:00:47;;;;;;;;;3.33;2.00;;;;;23.04;39.95;99811.78;5076120;28;47137;-86
2023/03/26 04:03:13;;;;;;;;;4.33;2.00;;;;;22.99;39.94;99809.75;5076408;27;45362;-87
2023/03/26 04:05:39;;;;;;;;;1.00;1.00;;;;;23.03;39.85;99829.53;5092419;27;45389;-87
2023/03/26 04:08:05;;;;;;;;;4.33;4.00;;;;;23.05;40.02;99835.44;5076498;27;45295;-87
2023/03/26 04:10:30;;;;;;;;;4.00;2.00;;;;;23.12;39.80;99863.78;5076457;28;45412;-87
2023/03/26 04:12:55;;;;;;;;;1.67;1.67;;;;;23.11;39.59;99857.66;5076356;28;45380;-87
2023/03/26 04:15:21;;;;;;;;;2.00;2.00;;;;;22.74;40.25;99813.94;5074965;28;45284;-87
2023/03/26 04:17:46;;;;;;;;;2.00;2.00;;;;;23.10;39.87;99873.78;5076418;28;45523;-87
2023/03/26 04:20:15;;;;;;;;;3.00;2.33;;;;;22.94;39.97;99865.28;5076370;28;46008;-86
2023/03/26 04:22:44;;;;;;;;;1.00;1.00;;;;;22.94;39.89;99858.16;5076159;27;45298;-86
2023/03/26 04:25:11;;;;;;;;;2.00;2.00;;;;;23.08;39.70;99879.31;5076498;27;45365;-87
2023/03/26 04:27:40;;;;;;;;;1.00;1.00;;;;;22.96;39.68;99864.03;5074994;28;45550;-87
2023/03/26 04:30:08;;;;;;;;;4.33;2.00;;;;;22.93;39.91;99861.00;5075667;27;46682;-86
2023/03/26 04:32:34;;;;;;;;;1.67;1.67;;;;;23.05;39.91;99888.50;5075552;27;45444;-86
2023/03/26 04:35:04;;;;;;;;;1.33;1.33;;;;;23.03;39.61;99874.63;5076364;28;45334;-87
2023/03/26 04:37:33;;;;;;;;;1.00;0.33;;;;;23.05;39.34;99887.69;5075982;27;45441;-87
2023/03/26 04:40:07;;;;;;;;;3.00;1.33;;;;;22.74;40.04;99837.78;5075945;28;46051;-87
2023/03/26 04:42:33;;;;;;;;;2.33;2.33;;;;;23.04;39.47;99892.19;5075585;27;45379;-89
2023/03/26 04:44:58;;;;;;;;;0.33;0.33;;;;;22.91;40.08;99873.66;5076219;27;45345;-87
2023/03/26 04:47:24;;;;;;;;;4.00;1.67;;;;;23.08;39.38;99900.53;5076099;28;45470;-87
2023/03/26 04:49:50;;;;;;;;;0.67;0.67;;;;;22.90;39.37;99877.34;5076014;28;45328;-87
2023/03/26 04:52:15;;;;;;;;;2.00;2.00;;;;;22.83;39.25;99859.59;5075858;27;45394;-86
2023/03/26 04:54:43;;;;;;;;;1.00;1.00;;;;;22.93;40.06;99874.25;5076193;28;45653;-86
2023/03/26 04:57:18;;;;;;;;;0.33;0.33;;;;;23.09;39.58;99907.47;5075648;27;45305;-87
2023/03/26 04:59:44;;;;;;;;;1.00;1.00;;;;;23.07;39.58;99910.34;5075786;28;46396;-87
2023/03/26 05:02:11;;;;;;;;;0.33;0.33;;;;;23.07;39.53;99896.25;5075753;27;45312;-86
2023/03/26 05:04:40;;;;;;;;;2.67;1.00;;;;;23.04;39.44;99913.41;5076116;28;45236;-87
2023/03/26 05:07:06;;;;;;;;;1.00;1.00;;;;;22.69;39.25;99861.44;5075851;27;45424;-88
2023/03/26 05:09:31;;;;;;;;;2.67;1.00;;;;;22.95;39.84;99909.38;5075658;28;46155;-87
2023/03/26 05:11:57;;;;;;;;;3.67;1.00;;;;;22.90;39.63;99911.81;5075351;28;45394;-87
2023/03/26 05:14:23;;;;;;;;;1.00;1.00;;;;;23.06;39.32;99943.19;5075894;27;45284;-87
2023/03/26 05:16:52;;;;;;;;;1.33;1.33;;;;;23.05;39.99;99930.97;5075780;28;45284;-88
2023/03/26 05:19:17;;;;;;;;;1.00;1.00;;;;;22.95;39.76;99930.59;5075389;27;47143;-86
2023/03/26 05:21:43;;;;;;;;;1.67;1.67;;;;;23.05;39.63;99938.91;5075280;27;45529;-86
2023/03/26 05:24:08;;;;;;;;;1.67;1.67;;;;;23.04;39.93;99934.63;5075665;28;45409;-86
2023/03/26 05:26:33;;;;;;;;;1.00;1.00;;;;;22.87;39.56;99918.38;5075250;28;45456;-87
2023/03/26 05:28:59;;;;;;;;;1.00;1.00;;;;;22.98;39.57;99942.63;5075328;28;45939;-86
2023/03/26 05:31:26;;;;;;;;;2.00;2.00;;;;;23.04;39.67;99952.38;5075343;28;45410;-86
2023/03/26 05:33:52;;;;;;;;;2.00;0.00;;;;;22.82;39.24;99921.63;5075635;28;45379;-86
2023/03/26 05:36:18;;;;;;;;;2.67;2.00;;;;;22.98;39.33;99959.31;5075265;28;45562;-86
2023/03/26 05:38:48;;;;;;;;;1.00;1.00;;;;;22.92;39.45;99944.25;5075241;28;46388;-85
2023/03/26 05:41:14;;;;;;;;;2.33;1.00;;;;;22.83;39.57;99939.16;5074841;28;45398;-90
2023/03/26 05:43:39;;;;;;;;;3.00;1.00;;;;;22.87;39.72;99944.06;5062846;27;45472;-88
2023/03/26 05:46:05;;;;;;;;;1.00;1.00;;;;;22.99;39.51;99966.25;5078767;28;45307;-90
2023/03/26 05:48:31;;;;;;;;;0.67;0.67;;;;;23.03;39.65;99979.94;5079046;28;46386;-88
2023/03/26 05:50:57;;;;;;;;;0.00;0.00;;;;;23.00;39.51;99975.03;5077807;28;45390;-89
2023/03/26 05:53:24;;;;;;;;;0.67;0.67;;;;;23.03;39.54;99970.13;5079057;28;45316;-90
2023/03/26 05:55:56;;;;;;;;;0.00;0.00;;;;;22.66;39.39;99912.25;5079297;27;45249;-89
2023/03/26 05:58:29;;;;;;;;;1.33;0.00;;;;;22.85;39.53;99936.28;5078683;28;46098;-93
2023/03/26 06:01:08;;;;;;;;;1.00;1.00;;;;;22.90;38.96;99941.78;5078094;28;45762;-93
2023/03/26 06:03:38;;;;;;;;;1.00;1.00;;;;;22.83;39.01;99927.75;5079435;27;45440;-90
2023/03/26 06:06:07;;;;;;;;;1.00;1.00;;;;;22.78;39.40;99935.50;5079426;28;45370;-90
2023/03/26 06:08:32;;;;;;;;;0.33;0.33;;;;;23.03;39.38;99975.44;5095328;27;47389;-92
2023/03/26 06:11:00;;;;;;;;;1.00;1.00;;;;;23.03;39.37;99978.06;5079116;28;45362;-93
2023/03/26 06:13:26;;;;;;;;;1.00;1.00;;;;;23.03;39.45;99971.97;5078646;28;45334;-81
2023/03/26 06:15:51;;;;;;;;;0.00;0.00;;;;;22.82;39.51;99955.31;5078204;28;45476;-86
2023/03/26 06:18:17;;;;;;;;;0.00;0.00;;;;;23.00;39.60;99969.75;5077455;28;47040;-87
2023/03/26 06:20:43;;;;;;;;;2.00;1.00;;;;;22.82;39.35;99948.13;5077404;27;45406;-84
2023/03/26 06:23:08;;;;;;;;;0.00;0.00;;;;;23.05;39.09;99980.53;5077533;27;45348;-87
2023/03/26 06:25:35;;;;;;;;;0.00;0.00;;;;;22.98;39.15;99985.84;5077190;27;45498;-86
2023/03/26 06:28:00;;;;;;;;;0.33;0.00;;;;;23.05;39.07;99994.63;5077303;27;46535;-87
2023/03/26 06:30:26;;;;;;;;;3.00;1.00;;;;;22.77;39.57;99947.94;5072787;28;45461;-86
2023/03/26 06:32:51;;;;;;;;;2.00;1.00;;;;;22.82;39.66;99964.03;5073021;28;45418;-84
2023/03/26 06:35:16;;;;;;;;;0.00;0.00;;;;;22.93;39.56;99977.69;5057746;28;45457;-83
2023/03/26 06:37:42;;;;;;;;;0.00;0.00;;;;;22.80;39.68;99962.63;5057340;28;46282;-83
2023/03/26 06:40:08;;;;;;;;;1.00;0.00;;;;;23.05;39.42;100007.06;5057229;28;45458;-84
2023/03/26 06:42:33;;;;;;;;;0.67;0.67;;;;;23.00;39.44;99997.09;5057707;28;45364;-84
2023/03/26 06:44:59;;;;;;;;;0.00;0.00;;;;;23.01;39.80;99997.88;5057636;28;45378;-84
2023/03/26 06:47:24;;;;;;;;;0.00;0.00;;;;;23.01;39.35;100008.50;5057384;28;46004;-84
2023/03/26 06:49:49;;;;;;;;;0.00;0.00;;;;;23.04;39.50;100016.03;5057479;28;45346;-84
2023/03/26 06:52:15;;;;;;;;;0.67;0.00;;;;;23.02;39.69;100016.25;5057550;28;45440;-83
2023/03/26 06:54:40;;;;;;;;;1.33;0.00;;;;;22.89;39.57;99995.06;5056999;28;45403;-84
2023/03/26 06:57:05;;;;;;;;;0.00;0.00;;;;;22.87;39.60;99991.81;5057125;28;46819;-84
2023/03/26 06:59:31;;;;;;;;;0.00;0.00;;;;;23.02;39.55;100026.88;5057284;28;45260;-83
2023/03/26 07:01:56;;;;;;;;;1.00;1.00;;;;;22.98;39.72;100015.03;5057353;28;45502;-83
2023/03/26 07:04:21;;;;;;;;;2.00;1.00;;;;;22.83;39.59;99996.69;5057327;28;45395;-84
2023/03/26 07:06:47;;;;;;;;;1.00;1.00;;;;;22.94;39.46;100027.91;5057014;28;45375;-84
2023/03/26 07:09:12;;;;;;;;;0.33;0.00;;;;;22.93;39.13;100034.22;5056890;28;45289;-85
2023/03/26 07:11:37;;;;;;;;;0.67;0.67;;;;;23.02;39.74;100044.63;5057147;28;45338;-85
2023/03/26 07:14:03;;;;;;;;;0.33;0.33;;;;;23.03;39.48;100035.66;5057019;28;45365;-85
2023/03/26 07:16:28;;;;;;;;;3.00;0.67;;;;;22.93;39.61;100026.25;5056991;28;46967;-85
2023/03/26 07:18:54;;;;;;;;;0.00;0.00;;;;;22.89;38.92;100027.72;5056829;28;45347;-84
2023/03/26 07:21:20;;;;;;;;;0.33;0.33;;;;;23.02;39.31;100048.09;5056911;28;45367;-85
2023/03/26 07:23:46;;;;;;;;;0.00;0.00;;;;;22.74;39.14;100019.97;5093220;27;45478;-85
2023/03/26 07:26:40;;;;;;;;;0.00;0.00;;;;;23.01;39.24;100061.56;5097387;27;46407;-85
2023/03/26 07:29:16;;;;;;;;;1.00;1.00;;;;;23.01;39.36;100061.56;5097360;27;45375;-84
2023/03/26 07:31:53;;;;;;;;;0.00;0.00;;;;;23.01;39.70;100059.72;5087464;27;45417;-85
2023/03/26 07:34:45;;;;;;;;;0.00;0.00;;;;;23.02;39.71;100060.53;5075695;28;45287;-85
2023/03/26 07:37:24;;;;;;;;;0.00;0.00;;;;;23.01;39.21;100054.41;5076146;28;47171;-84
2023/03/26 07:40:16;;;;;;;;;0.00;0.00;;;;;22.70;39.52;99997.53;5076754;28;45376;-85
2023/03/26 07:43:00;;;;;;;;;1.00;0.00;;;;;22.89;39.36;100025.06;5076733;28;45318;-84
2023/03/26 07:45:41;;;;;;;;;0.00;0.00;;;;;22.71;39.25;100017.72;5076664;28;45303;-86
2023/03/26 07:48:15;;;;;;;;;1.00;1.00;;;;;23.00;39.37;100071.38;5076577;28;47272;-85
2023/03/26 07:50:41;;;;;;;;;0.00;0.00;;;;;23.01;39.17;100070.31;5076602;28;45365;-85
2023/03/26 07:53:07;;;;;;;;;1.33;0.00;;;;;23.01;39.24;100067.69;5076848;28;45335;-85
2023/03/26 07:55:38;;;;;;;;;0.00;0.00;;;;;22.92;39.22;100051.19;5076910;27;45804;-84
2023/03/26 07:58:09;;;;;;;;;0.00;0.00;;;;;23.03;39.17;100059.53;5076604;28;45374;-84
2023/03/26 08:00:41;;;;;;;;;0.00;0.00;;;;;23.03;38.77;100067.50;5076505;28;45322;-85
2023/03/26 08:03:25;;;;;;;;;0.00;0.00;;;;;23.03;39.09;100075.44;5076722;27;45280;-85
2023/03/26 08:06:14;;;;;;;;;0.00;0.00;;;;;22.94;39.20;100065.03;5076343;28;45359;-85
2023/03/26 08:09:11;;;;;;;;;0.00;0.00;;;;;22.83;39.42;100049.75;5076040;27;47111;-85
2023/03/26 08:11:52;;;;;;;;;0.00;0.00;;;;;23.01;39.13;100085.44;5076032;28;45293;-85
2023/03/26 08:14:51;;;;;;;;;1.00;1.00;;;;;22.73;38.87;100042.19;5076487;28;45301;-85
2023/03/26 08:17:27;;;;;;;;;1.67;0.00;;;;;22.83;38.94;100065.66;5076305;27;45424;-85
2023/03/26 08:20:01;;;;;;;;;0.67;0.67;;;;;23.04;39.07;100090.31;5075914;27;46947;-86
2023/03/26 08:22:33;;;;;;;;;0.00;0.00;;;;;23.03;39.58;100094.81;5076070;27;45385;-85
2023/03/26 08:25:09;;;;;;;;;0.00;0.00;;;;;23.00;39.44;100097.91;5076381;27;45311;-85
2023/03/26 08:27:50;;;;;;;;;0.00;0.00;;;;;23.05;39.14;100102.59;5076199;28;45604;-85
2023/03/26 08:30:19;;;;;;;;;1.00;0.00;;;;;22.98;39.20;100088.50;5076055;28;45275;-84
2023/03/26 08:32:55;;;;;;;;;0.00;0.00;;;;;22.97;39.04;100090.34;5075954;28;45343;-85
2023/03/26 08:35:20;;;;;;;;;0.00;0.00;;;;;22.97;39.01;100090.34;5075752;28;45408;-85
2023/03/26 08:37:45;;;;;;;;;1.00;0.00;;;;;23.06;39.31;100104.19;5075936;27;45366;-85
2023/03/26 08:40:24;;;;;;;;;0.00;0.00;;;;;22.78;39.34;100068.91;5076041;28;46082;-83
2023/03/26 08:43:08;;;;;;;;;0.00;0.00;;;;;23.05;38.84;100114.00;5075966;28;45464;-85
2023/03/26 08:46:00;;;;;;;;;0.00;0.00;;;;;23.07;39.30;100119.09;5076304;28;45432;-85
2023/03/26 08:48:36;;;;;;;;;0.00;0.00;;;;;23.02;39.28;100117.06;5076029;27;45398;-85
2023/03/26 08:51:29;;;;;;;;;0.33;0.00;;;;;23.06;38.81;100118.28;5075315;28;46505;-85
2023/03/26 08:54:26;;;;;;;;;0.00;0.00;;;;;23.03;39.18;100120.56;5074370;28;45350;-85
2023/03/26 08:57:38;;;;;;;;;0.00;0.00;;;;;22.99;39.53;100119.31;5075841;28;45398;-83
2023/03/26 09:00:28;;;;;;;;;0.00;0.00;;;;;23.06;39.21;100128.91;5073530;28;45395;-84
2023/03/26 09:03:28;;;;;;;;;0.00;0.00;;;;;23.07;38.84;100148.28;5073091;28;46634;-85
2023/03/26 09:06:24;;;;;;;;;0.00;0.00;;;;;23.07;38.84;100127.88;5013105;28;45519;-85
2023/03/26 09:08:55;;;;;;;;;0.00;0.00;;;;;23.07;38.84;100132.38;5012890;28;45358;-85
2023/03/26 09:11:47;;;;;;;;;0.00;0.00;;;;;23.07;38.79;100135.84;5013155;28;45350;-85
2023/03/26 09:14:41;;;;;;;;;4.00;0.00;;;;;23.11;38.86;100140.75;5012998;28;47233;-84
2023/03/26 09:17:12;;;;;;;;;0.00;0.00;;;;;23.09;39.09;100130.31;5012856;28;45554;-85
2023/03/26 09:19:51;;;;;;;;;1.00;1.00;;;;;23.09;39.00;100138.28;5013982;28;45440;-85
2023/03/26 09:22:41;;;;;;;;;1.00;0.00;;;;;23.01;38.72;100120.75;5016174;28;45560;-85
2023/03/26 09:25:14;;;;;;;;;1.00;0.67;;;;;23.09;38.92;100143.59;4999646;28;48695;-85
2023/03/26 09:27:57;;;;;;;;;0.00;0.00;;;;;23.10;38.84;100139.09;5016397;28;45393;-80
2023/03/26 09:30:57;;;;;;;;;0.00;0.00;;;;;23.10;39.37;100128.50;5016601;28;45499;-88
2023/03/26 09:33:47;;;;;;;;;0.00;0.00;;;;;23.11;38.86;100140.75;5016196;28;45505;-88
2023/03/26 09:36:29;;;;;;;;;0.00;0.00;;;;;22.95;38.87;100105.66;5015442;28;47322;-91
2023/03/26 09:39:21;;;;;;;;;1.00;1.00;;;;;23.12;38.94;100135.22;5016705;28;45486;-92
2023/03/26 09:42:16;;;;;;;;;0.00;0.00;;;;;23.14;38.82;100140.31;5041496;28;45324;-82
2023/03/26 09:45:21;;;;;;;;;1.50;0.00;;;;;23.16;39.31;100144.41;5078089;28;45626;-80
2023/03/26 09:48:12;;;;;;;;;1.00;0.33;;;;;23.20;38.86;100157.25;5015658;28;47100;-79
2023/03/26 09:51:02;;;;;;;;;3.00;3.00;;;;;23.18;38.50;100137.06;5015655;28;45513;-85
2023/03/26 09:54:14;;;;;;;;;4.00;2.00;;;;;23.22;38.04;100145.41;5016304;28;45520;-84
2023/03/26 09:56:57;;;;;;;;;6.33;3.00;;;;;23.12;37.84;100137.88;5015717;28;45448;-78
2023/03/26 09:59:31;;;;;;;;;5.00;2.00;;;;;23.21;37.77;100165.03;5015978;28;46966;-87
2023/03/26 10:02:30;;;;;;;;;4.67;3.00;;;;;23.22;38.13;100165.81;5015382;28;45322;-81
2023/03/26 10:05:43;;;;;;;;;4.00;2.00;;;;;23.14;37.98;100158.88;5015973;28;45468;-87
2023/03/26 10:08:27;;;;;;;;;2.33;1.67;;;;;23.24;37.34;100171.75;4956521;28;45417;-84
2023/03/26 10:10:55;;;;;;;;;4.67;1.00;;;;;23.03;37.00;100147.88;4956421;28;47094;-80
2023/03/26 10:13:51;;;;;;;;;0.67;0.67;;;;;23.22;36.75;100174.63;4956872;28;45337;-80
2023/03/26 10:16:25;;;;;;;;;3.00;0.67;;;;;23.21;36.31;100169.53;4956342;28;45431;-79
2023/03/26 10:19:21;;;;;;;;;1.00;1.00;;;;;23.20;36.81;100162.56;4956501;28;45473;-79
2023/03/26 10:21:52;;;;;;;;;0.00;0.00;;;;;23.17;36.48;100169.09;4999131;28;46379;-88
2023/03/26 10:24:56;;;;;;;;;0.00;0.00;;;;;23.15;36.04;100174.63;5055062;28;45972;-77
2023/03/26 10:27:27;;;;;;;;;0.00;0.00;;;;;23.13;35.93;100189.13;5035476;28;45373;-81
2023/03/26 10:29:55;;;;;;;;;3.00;1.33;;;;;23.11;36.02;100212.41;5035031;28;45632;-87
2023/03/26 10:32:36;;;;;;;;;1.00;0.00;;;;;23.07;36.07;100202.19;5019855;28;45384;-82
2023/03/26 10:35:36;;;;;;;;;0.67;0.00;;;;;23.07;36.12;100214.63;5014652;28;45374;-79
2023/03/26 10:38:23;;;;;;;;;3.67;0.00;;;;;22.87;35.78;100177.47;5013958;28;45402;-79
2023/03/26 10:41:06;;;;;;;;;0.67;0.00;;;;;23.01;36.33;100210.94;5015604;28;45277;-77
2023/03/26 10:43:44;;;;;;;;;0.00;0.00;;;;;22.98;36.50;100227.25;5052617;28;47247;-79
2023/03/26 10:46:28;;;;;;;;;1.00;0.67;;;;;22.98;36.65;100239.72;5034014;28;45487;-79
2023/03/26 10:49:19;;;;;;;;;0.33;0.00;;;;;22.96;36.29;100234.59;5034295;28;45497;-79
2023/03/26 10:51:50;;;;;;;;;0.67;0.33;;;;;22.91;36.39;100227.25;5034784;28;45337;-79
2023/03/26 10:54:39;;;;;;;;;0.33;0.33;;;;;22.96;36.51;100238.06;5034793;28;47198;-75
2023/03/26 10:57:32;;;;;;;;;3.00;0.67;;;;;22.89;36.41;100221.34;5036114;28;45446;-75
2023/03/26 11:00:11;;;;;;;;;1.33;1.33;;;;;22.96;36.88;100235.41;5057032;28;45550;-75
2023/03/26 11:03:16;;;;;;;;;3.00;1.00;;;;;22.85;36.79;100220.09;5056926;27;45545;-80
2023/03/26 11:06:09;;;;;;;;;0.00;0.00;;;;;23.00;36.58;100248.28;5057047;28;46345;-81
2023/03/26 11:09:05;;;;;;;;;0.67;0.67;;;;;22.99;37.36;100246.66;5057020;28;45339;-78
2023/03/26 11:12:09;;;;;;;;;1.67;1.00;;;;;22.99;37.83;100247.47;5057153;28;45546;-77
2023/03/26 11:14:48;;;;;;;;;2.00;0.33;;;;;22.89;37.27;100229.28;5033925;28;45412;-75
2023/03/26 11:17:47;;;;;;;;;0.00;0.00;;;;;23.00;37.17;100250.94;5034441;28;45803;-76
2023/03/26 11:20:23;;;;;;;;;1.67;1.00;;;;;22.95;37.00;100244.38;5017589;28;46146;-76
2023/03/26 11:23:00;;;;;;;;;1.67;0.67;;;;;22.96;37.29;100248.69;5044547;28;45416;-75
2023/03/26 11:25:39;;;;;;;;;0.00;0.00;;;;;22.88;37.08;100240.09;5037614;28;45310;-73
2023/03/26 11:28:11;;;;;;;;;0.00;0.00;;;;;22.84;37.21;100237.84;5054305;28;46058;-75
2023/03/26 11:30:47;;;;;;;;;1.00;0.00;;;;;22.66;36.64;100203.09;5053739;28;45539;-75
2023/03/26 11:33:19;;;;;;;;;1.00;1.00;;;;;22.81;36.80;100238.25;5054530;28;45440;-80
2023/03/26 11:35:49;;;;;;;;;2.67;0.00;;;;;22.85;37.16;100247.44;5053845;28;45436;-89
2023/03/26 11:38:21;;;;;;;;;0.33;0.00;;;;;22.87;37.02;100263.16;5053966;28;45382;-80
2023/03/26 11:40:51;;;;;;;;;0.00;0.00;;;;;22.87;37.18;100265.00;5055566;28;45563;-81
2023/03/26 11:43:23;;;;;;;;;0.00;0.00;;;;;22.70;37.84;100234.34;5053457;28;45481;-86
2023/03/26 11:45:50;;;;;;;;;1.00;0.00;;;;;22.88;38.07;100262.13;5054366;28;45289;-83
2023/03/26 11:48:27;;;;;;;;;0.67;0.00;;;;;22.99;38.36;100275.81;5054030;28;46252;-82
2023/03/26 11:51:07;;;;;;;;;2.00;0.00;;;;;22.97;38.26;100260.13;5064245;28;45390;-81
2023/03/26 11:53:37;;;;;;;;;1.00;0.00;;;;;23.03;38.46;100277.06;5076790;28;45394;-82
2023/03/26 11:56:06;;;;;;;;;2.00;1.00;;;;;23.01;37.76;100281.75;5076579;27;45431;-80
2023/03/26 11:58:46;;;;;;;;;0.00;0.00;;;;;22.92;37.78;100262.56;5076102;28;46241;-80